Flight Track Log - Related Links

Times and Time Zones

All times are in EDT time to prevent confusion due to time zone crossing. See the FFT532 flight status page for this flight to view local times or setup timezone preferences in your user account.

Time Position Orientation Groundspeed Altitude Reporting Facility
EDT Latitude Longitude Course Direction KTS MPH feet Rate Location/Type
Tue 11:44:45 AM 39.8350 -104.6420 North 170 196 5,600  Level FlightAware ADS-B
Tue 11:45:05 AM 39.8210 -104.6350 159° South 173 199 6,300 1,773 Climbing FlightAware ADS-B
Tue 11:45:29 AM 39.8050 -104.6200 144° Southeast 184 212 6,900 1,091 Climbing FlightAware ADS-B
Tue 11:45:49 AM 39.7900 -104.6050 142° Southeast 212 244 7,100 900 Climbing FlightAware ADS-B
Tue 11:46:09 AM 39.7730 -104.5880 142° Southeast 240 276 7,500 1,313 Climbing FlightAware ADS-B
Tue 11:46:21 AM 39.7630 -104.5770 140° Southeast 250 288 7,800 2,229 Climbing FlightAware ADS-B
Tue 11:46:44 AM 39.7410 -104.5560 144° Southeast 259 298 8,800 2,651 Climbing FlightAware ADS-B
Tue 11:47:04 AM 39.7210 -104.5370 144° Southeast 263 303 9,700 2,379 Climbing FlightAware ADS-B
Tue 11:47:42 AM 39.6820 -104.5020 145° Southeast 278 320 11,100 2,280 Climbing FlightAware ADS-B
Tue 11:47:54 AM 39.6690 -104.4900 145° Southeast 282 325 11,600 1,929 Climbing FlightAware ADS-B
Tue 11:48:10 AM 39.6560 -104.4690 129° Southeast 294 338 12,000 1,714 Climbing FlightAware ADS-B
Tue 11:48:22 AM 39.6510 -104.4500 109° East 302 348 12,400 2,100 Climbing FlightAware ADS-B
Tue 11:48:30 AM 39.6490 -104.4330 99° East 306 352 12,700 2,813 Climbing FlightAware ADS-B
Tue 11:48:54 AM 39.6560 -104.3900 78° East 305 351 13,900 3,529 Climbing FlightAware ADS-B
Tue 11:49:04 AM 39.6630 -104.3770 55° Northeast 286 329 14,700 3,158 Climbing FlightAware ADS-B
Tue 11:49:32 AM 39.6830 -104.3380 56° Northeast 291 335 15,900 1,500 Climbing FlightAware ADS-B
Tue 11:50:08 AM 39.7040 -104.2740 67° East 334 384 16,300 750 Climbing FlightAware ADS-B
Tue 11:50:44 AM 39.7260 -104.2030 68° East 369 425 16,800 1,324 Climbing FlightAware ADS-B
Tue 11:51:16 AM 39.7330 -104.1300 83° East 382 440 17,800 1,941 Climbing FlightAware ADS-B
Tue 11:51:52 AM 39.7410 -104.0490 83° East 390 449 19,000 2,000 Climbing FlightAware ADS-B
Tue 11:52:25 AM 39.7480 -103.9720 83° East 396 456 20,100 1,913 Climbing FlightAware ADS-B
Tue 11:53:01 AM 39.7560 -103.8860 83° East 403 464 21,200 1,833 Climbing FlightAware ADS-B
Tue 11:53:37 AM 39.7640 -103.7970 83° East 408 470 22,300 1,667 Climbing FlightAware ADS-B
Tue 11:54:13 AM 39.7720 -103.7080 83° East 421 484 23,200 1,629 Climbing FlightAware ADS-B
Tue 11:54:47 AM 39.7800 -103.6240 83° East 426 490 24,200 1,676 Climbing FlightAware ADS-B
Tue 11:55:21 AM 39.7880 -103.5350 83° East 433 498 25,100 1,457 Climbing FlightAware ADS-B
Tue 11:55:57 AM 39.7960 -103.4450 83° East 440 506 25,900 1,457 Climbing FlightAware ADS-B
Tue 11:56:31 AM 39.8040 -103.3510 84° East 446 513 26,800 1,543 Climbing FlightAware ADS-B
Tue 11:57:07 AM 39.8120 -103.2550 84° East 453 521 27,700 1,417 Climbing FlightAware ADS-B
Tue 11:57:43 AM 39.8210 -103.1550 83° East 458 527 28,500 1,412 Climbing FlightAware ADS-B
Tue 11:58:15 AM 39.8280 -103.0700 84° East 462 532 29,300 1,324 Climbing FlightAware ADS-B
Tue 11:58:51 AM 39.8360 -102.9680 84° East 467 537 30,000 1,286 Climbing FlightAware ADS-B
Tue 11:59:25 AM 39.8440 -102.8730 84° East 470 541 30,800 1,629 Climbing FlightAware ADS-B
Tue 12:00:01 PM 39.8520 -102.7770 84° East 464 534 31,900 1,417 Climbing FlightAware ADS-B
Tue 12:00:37 PM 39.8610 -102.6730 84° East 470 541 32,500 1,268 Climbing FlightAware ADS-B
Tue 12:01:12 PM 39.8680 -102.5740 85° East 467 537 33,400 1,391 Climbing FlightAware ADS-B
Tue 12:01:46 PM 39.8760 -102.4790 84° East 466 536 34,100 1,286 Climbing FlightAware ADS-B
Tue 12:02:22 PM 39.8840 -102.3790 84° East 464 534 34,900 1,114 Climbing FlightAware ADS-B
Tue 12:02:56 PM 39.8910 -102.2860 84° East 468 539 35,400 917 Climbing FlightAware ADS-B
Tue 12:03:34 PM 39.8990 -102.1790 84° East 469 540 36,000 1,029 Climbing FlightAware ADS-B
Tue 12:04:06 PM 39.9060 -102.0890 84° East 467 537 36,600 794 Climbing FlightAware ADS-B
Tue 12:04:42 PM 39.9140 -101.9890 84° East 469 540 36,900 343 Climbing FlightAware ADS-B
Tue 12:05:16 PM 39.9210 -101.8930 85° East 474 545 37,000 86 Climbing FlightAware ADS-B
Tue 12:05:52 PM 39.9280 -101.7930 85° East 486 559 37,000  Level FlightAware ADS-B
Tue 12:06:28 PM 39.9360 -101.6870 84° East 494 568 37,000  Level FlightAware ADS-B
Tue 12:07:08 PM 39.9440 -101.5670 85° East 495 570 37,000  Level FlightAware ADS-B
Tue 12:07:44 PM 39.9520 -101.4590 84° East 493 567 37,000  Level FlightAware ADS-B
Tue 12:08:20 PM 39.9590 -101.3560 85° East 491 565 37,000  Level FlightAware ADS-B
Tue 12:09:01 PM 39.9680 -101.2460 84° East 491 565 37,000  Level FlightAware ADS-B
Tue 12:09:35 PM 39.9740 -101.1600 85° East 491 565 37,000  Level FlightAware ADS-B
Tue 12:10:19 PM 39.9830 -101.0190 85° East 491 565 37,000  Level FlightAware ADS-B
Tue 12:10:55 PM 39.9910 -100.9290 83° East 491 565 37,000  Level FlightAware ADS-B
Tue 12:11:29 PM 39.9980 -100.8430 84° East 491 565 37,000  Level FlightAware ADS-B
Tue 12:12:01 PM 40.0040 -100.7630 84° East 491 565 37,000  Level FlightAware ADS-B
Tue 12:12:35 PM 40.0110 -100.6780 84° East 491 565 37,000  Level FlightAware ADS-B
Tue 12:13:11 PM 40.0180 -100.5880 84° East 491 565 37,000  Level FlightAware ADS-B
Tue 12:13:47 PM 40.0250 -100.4970 84° East 491 565 37,000  Level FlightAware ADS-B
Tue 12:14:23 PM 40.0330 -100.4070 83° East 491 565 37,000  Level FlightAware ADS-B
Tue 12:14:59 PM 40.0400 -100.3170 84° East 491 565 37,000  Level FlightAware ADS-B
Tue 12:15:35 PM 40.0470 -100.2270 84° East 491 565 37,000  Level FlightAware ADS-B
Tue 12:16:09 PM 40.0540 -100.1410 84° East 491 565 37,000  Level FlightAware ADS-B
Tue 12:16:46 PM 40.0610 -100.0480 84° East 491 565 37,000  Level FlightAware ADS-B
Tue 12:17:22 PM 40.0690 -99.9580 83° East 491 565 37,000  Level FlightAware ADS-B
Tue 12:17:59 PM 40.0760 -99.8650 84° East 491 565 37,000  Level FlightAware ADS-B
Tue 12:18:36 PM 40.0840 -99.7720 84° East 491 565 37,000  Level FlightAware ADS-B
Tue 12:19:10 PM 40.0900 -99.6870 85° East 491 565 37,000  Level FlightAware ADS-B
Tue 12:19:43 PM 40.0797 -99.3664 85° East 490 564 37,000 -17 Level Minneapolis Center
Tue 12:25:06 PM 40.1260 -98.3970 85° East 486 559 36,900  Descending FlightAware ADS-B
Tue 12:25:43 PM 40.1310 -98.2980 86° East 486 559 37,000 82 Climbing FlightAware ADS-B
Tue 12:26:19 PM 40.1360 -98.2080 86° East 486 559 37,000  Level FlightAware ADS-B
Tue 12:26:54 PM 40.1390 -98.0770 88° East 486 559 37,000  Level FlightAware ADS-B
Tue 12:27:25 PM 40.1430 -97.9850 87° East 486 559 37,000  Level FlightAware ADS-B
Tue 12:28:02 PM 40.1470 -97.8760 87° East 484 557 37,000  Level FlightAware ADS-B
Tue 12:28:38 PM 40.1510 -97.7700 87° East 485 558 37,000 -90 Level FlightAware ADS-B
Tue 12:29:09 PM 40.1550 -97.6800 87° East 485 558 36,900  Descending FlightAware ADS-B
Tue 12:29:47 PM 40.1590 -97.5740 87° East 485 558 37,000 85 Climbing FlightAware ADS-B
Tue 12:30:20 PM 40.1620 -97.4740 88° East 486 559 37,000  Level FlightAware ADS-B
Tue 12:30:57 PM 40.1660 -97.3660 87° East 487 560 37,000  Level FlightAware ADS-B
Tue 12:31:34 PM 40.1700 -97.2600 87° East 487 560 37,000  Level FlightAware ADS-B
Tue 12:32:06 PM 40.1730 -97.1610 88° East 487 560 37,000  Level FlightAware ADS-B
Tue 12:32:39 PM 40.1760 -97.0700 88° East 486 559 37,000  Level FlightAware ADS-B
Tue 12:33:18 PM 40.1800 -96.9510 87° East 486 559 37,000  Level FlightAware ADS-B
Tue 12:33:48 PM 40.1820 -96.8630 88° East 486 559 37,000  Level FlightAware ADS-B
Tue 12:34:25 PM 40.1860 -96.7540 87° East 486 559 37,000 -79 Level FlightAware ADS-B
Tue 12:35:04 PM 40.1890 -96.6400 88° East 487 560 36,900 -83 Descending FlightAware ADS-B
Tue 12:35:37 PM 40.1920 -96.5430 88° East 488 562 36,900 90 Level FlightAware ADS-B
Tue 12:36:11 PM 40.1940 -96.4440 88° East 488 562 37,000 87 Climbing FlightAware ADS-B
Tue 12:36:46 PM 40.1970 -96.3400 88° East 488 562 37,000  Level FlightAware ADS-B
Tue 12:37:21 PM 40.2010 -96.2370 87° East 489 563 37,000  Level FlightAware ADS-B
Tue 12:37:55 PM 40.2130 -96.1410 81° East 487 560 37,000  Level FlightAware ADS-B
Tue 12:38:31 PM 40.2320 -96.0370 77° East 488 562 37,000  Level FlightAware ADS-B
Tue 12:39:07 PM 40.2520 -95.9330 76° East 489 563 37,000  Level FlightAware ADS-B
Tue 12:39:39 PM 40.2690 -95.8410 76° East 489 563 37,000  Level FlightAware ADS-B
Tue 12:40:16 PM 40.2880 -95.7340 77° East 488 562 37,000  Level FlightAware ADS-B
Tue 12:40:53 PM 40.3080 -95.6280 76° East 489 563 37,000 -86 Level FlightAware ADS-B
Tue 12:41:26 PM 40.3250 -95.5340 77° East 490 564 36,900  Descending FlightAware ADS-B
Tue 12:42:02 PM 40.3440 -95.4290 77° East 490 564 37,000 87 Climbing FlightAware ADS-B
Tue 12:42:35 PM 40.3610 -95.3320 77° East 491 565 37,000  Level FlightAware ADS-B
Tue 12:43:07 PM 40.3770 -95.2450 76° East 492 566 37,000  Level FlightAware ADS-B
Tue 12:43:47 PM 40.3980 -95.1250 77° East 491 565 37,000  Level FlightAware ADS-B
Tue 12:44:23 PM 40.4170 -95.0200 77° East 492 566 37,000  Level FlightAware ADS-B
Tue 12:44:58 PM 40.4340 -94.9200 77° East 491 565 37,000  Level FlightAware ADS-B
Tue 12:45:30 PM 40.4510 -94.8260 77° East 491 565 37,000  Level FlightAware ADS-B
Tue 12:46:07 PM 40.4690 -94.7200 77° East 491 565 37,000  Level FlightAware ADS-B
Tue 12:46:39 PM 40.4850 -94.6260 77° East 491 565 37,000  Level FlightAware ADS-B
Tue 12:47:17 PM 40.5030 -94.5230 77° East 490 564 37,000  Level FlightAware ADS-B
Tue 12:47:53 PM 40.5220 -94.4110 77° East 492 566 37,000  Level FlightAware ADS-B
Tue 12:48:29 PM 40.5400 -94.3060 77° East 492 566 37,000  Level FlightAware ADS-B
Tue 12:49:00 PM 40.5550 -94.2170 77° East 492 566 37,000  Level FlightAware ADS-B
Tue 12:49:37 PM 40.5740 -94.1070 77° East 493 567 37,000  Level FlightAware ADS-B
Tue 12:50:10 PM 40.5890 -94.0150 78° East 493 567 37,000  Level FlightAware ADS-B
Tue 12:50:42 PM 40.6050 -93.9180 78° East 492 566 37,000  Level FlightAware ADS-B
Tue 12:51:21 PM 40.6190 -93.8200 79° East 492 566 37,000  Level FlightAware ADS-B
Tue 12:52:13 PM 40.6420 -93.6650 79° East 491 565 37,000  Level FlightAware ADS-B
Tue 12:52:43 PM 40.6560 -93.5660 79° East 493 567 37,000 -90 Level FlightAware ADS-B
Tue 12:53:20 PM 40.6720 -93.4550 79° East 494 568 36,900 -85 Descending FlightAware ADS-B
Tue 12:53:54 PM 40.6860 -93.3560 79° East 496 571 36,900 83 Level FlightAware ADS-B
Tue 12:54:32 PM 40.7020 -93.2460 79° East 496 571 37,000 83 Climbing FlightAware ADS-B
Tue 12:55:06 PM 40.7160 -93.1440 80° East 497 572 37,000 -156 Level FlightAware ADS-B
Tue 12:55:49 PM 40.7340 -93.0190 79° East 498 573 36,800 -316 Descending FlightAware ADS-B
Tue 12:56:22 PM 40.7480 -92.9160 80° East 501 577 36,600 -441 Descending FlightAware ADS-B
Tue 12:56:57 PM 40.7630 -92.8070 80° East 502 578 36,300 -507 Descending FlightAware ADS-B
Tue 12:57:33 PM 40.7780 -92.6990 80° East 507 583 36,000 -600 Descending FlightAware ADS-B
Tue 12:58:07 PM 40.7920 -92.5950 80° East 510 587 35,600 -771 Descending FlightAware ADS-B
Tue 12:58:43 PM 40.8070 -92.4860 80° East 511 588 35,100 -930 Descending FlightAware ADS-B
Tue 12:59:18 PM 40.8210 -92.3840 80° East 515 593 34,500 -1,026 Descending FlightAware ADS-B
Tue 12:59:59 PM 40.8380 -92.2520 80° East 517 595 33,800 -947 Descending FlightAware ADS-B
Tue 01:00:34 PM 40.8530 -92.1440 80° East 522 601 33,300 -1,000 Descending FlightAware ADS-B
Tue 01:01:17 PM 40.8710 -92.0060 80° East 529 609 32,500 -1,000 Descending FlightAware ADS-B
Tue 01:01:52 PM 40.8850 -91.8950 80° East 513 590 32,000 -930 Descending FlightAware ADS-B
Tue 01:02:28 PM 40.9000 -91.7860 80° East 499 574 31,400 -1,043 Descending FlightAware ADS-B
Tue 01:03:01 PM 40.9120 -91.6900 81° East 489 563 30,800 -1,054 Descending FlightAware ADS-B
Tue 01:03:42 PM 40.9270 -91.5700 81° East 479 551 30,100 -1,000 Descending FlightAware ADS-B
Tue 01:04:19 PM 40.9400 -91.4650 81° East 472 543 29,500 -988 Descending FlightAware ADS-B
Tue 01:05:07 PM 40.9570 -91.3310 80° East 458 527 28,700 -587 Descending FlightAware ADS-B
Tue 01:05:51 PM 40.9710 -91.2220 80° East 455 524 28,600 -917 Descending FlightAware ADS-B
Tue 01:06:19 PM 40.9800 -91.1450 81° East 448 516 27,600 -1,522 Descending FlightAware ADS-B
Tue 01:06:58 PM 40.9940 -91.0320 81° East 439 505 26,900 -1,169 Descending FlightAware ADS-B
Tue 01:07:36 PM 41.0060 -90.9340 81° East 434 499 26,100 -1,275 Descending FlightAware ADS-B
Tue 01:08:18 PM 41.0180 -90.8290 81° East 416 479 25,200 -1,308 Descending FlightAware ADS-B
Tue 01:08:54 PM 41.0290 -90.7350 81° East 393 452 24,400 -1,029 Descending FlightAware ADS-B
Tue 01:09:28 PM 41.0380 -90.6600 81° East 378 435 24,000 -585 Descending FlightAware ADS-B
Tue 01:10:16 PM 41.0510 -90.5500 81° East 382 440 23,600 -593 Descending FlightAware ADS-B
Tue 01:10:59 PM 41.0630 -90.4480 81° East 378 435 23,100 -804 Descending FlightAware ADS-B
Tue 01:11:53 PM 41.0780 -90.3240 81° East 378 435 22,300 -800 Descending FlightAware ADS-B
Tue 01:12:29 PM 41.0870 -90.2420 82° East 376 433 21,900 -985 Descending FlightAware ADS-B
Tue 01:13:00 PM 41.0950 -90.1720 81° East 370 426 21,200 -1,727 Descending FlightAware ADS-B
Tue 01:13:35 PM 41.1040 -90.0940 81° East 371 427 20,000 -1,690 Descending FlightAware ADS-B
Tue 01:14:11 PM 41.1120 -90.0180 82° East 363 418 19,200 -1,437 Descending FlightAware ADS-B
Tue 01:14:46 PM 41.1210 -89.9400 81° East 352 405 18,300 -1,437 Descending FlightAware ADS-B
Tue 01:15:22 PM 41.1290 -89.8670 82° East 343 395 17,500 -1,268 Descending FlightAware ADS-B
Tue 01:15:57 PM 41.1380 -89.7910 81° East 337 388 16,800 -1,352 Descending FlightAware ADS-B
Tue 01:16:33 PM 41.1460 -89.7170 82° East 338 389 15,900 -1,304 Descending FlightAware ADS-B
Tue 01:17:06 PM 41.1530 -89.6520 82° East 333 383 15,300 -1,130 Descending FlightAware ADS-B
Tue 01:17:42 PM 41.1600 -89.5810 83° East 327 376 14,600 -1,000 Descending FlightAware ADS-B
Tue 01:18:18 PM 41.1650 -89.5080 85° East 323 372 14,100 -857 Descending FlightAware ADS-B
Tue 01:18:52 PM 41.1700 -89.4390 84° East 316 364 13,600 -917 Descending FlightAware ADS-B
Tue 01:19:30 PM 41.1750 -89.3690 85° East 310 357 13,000 -943 Descending FlightAware ADS-B
Tue 01:20:02 PM 41.1790 -89.3080 85° East 308 354 12,500 -882 Descending FlightAware ADS-B
Tue 01:20:38 PM 41.1830 -89.2430 85° East 306 352 12,000 -833 Descending FlightAware ADS-B
Tue 01:21:14 PM 41.1880 -89.1730 85° East 306 352 11,500 -857 Descending FlightAware ADS-B
Tue 01:21:48 PM 41.1920 -89.1110 85° East 302 348 11,000 -882 Descending FlightAware ADS-B
Tue 01:22:22 PM 41.1960 -89.0490 85° East 297 342 10,500 -943 Descending FlightAware ADS-B
Tue 01:22:58 PM 41.2000 -88.9810 86° East 294 338 9,900 -964 Descending FlightAware ADS-B
Tue 01:23:18 PM 41.2020 -88.9480 85° East 295 339 9,600 -900 Descending FlightAware ADS-B
Tue 01:23:38 PM 41.2050 -88.9120 84° East 290 334 9,300 -857 Descending FlightAware ADS-B
Tue 01:24:00 PM 41.2070 -88.8720 86° East 290 334 9,000 -818 Descending FlightAware ADS-B
Tue 01:24:22 PM 41.2100 -88.8340 84° East 289 333 8,700 -955 Descending FlightAware ADS-B
Tue 01:24:44 PM 41.2130 -88.7950 84° East 290 334 8,300 -1,059 Descending FlightAware ADS-B
Tue 01:24:56 PM 41.2200 -88.7740 66° East 293 337 8,100 -900 Descending FlightAware ADS-B
Tue 01:25:04 PM 41.2270 -88.7630 50° Northeast 295 339 8,000 -857 Descending FlightAware ADS-B
Tue 01:25:24 PM 41.2460 -88.7370 46° Northeast 294 338 7,700 -900 Descending FlightAware ADS-B
Tue 01:25:44 PM 41.2650 -88.7100 47° Northeast 292 336 7,400 -818 Descending FlightAware ADS-B
Tue 01:26:08 PM 41.2860 -88.6800 47° Northeast 290 334 7,100 -818 Descending FlightAware ADS-B
Tue 01:26:28 PM 41.3060 -88.6540 44° Northeast 292 336 6,800 -900 Descending FlightAware ADS-B
Tue 01:26:48 PM 41.3240 -88.6280 47° Northeast 293 337 6,500 -900 Descending FlightAware ADS-B
Tue 01:27:08 PM 41.3420 -88.6030 46° Northeast 292 336 6,200 -1,000 Descending FlightAware ADS-B
Tue 01:27:30 PM 41.3630 -88.5740 46° Northeast 289 333 5,800 -714 Descending FlightAware ADS-B
Tue 01:27:50 PM 41.3820 -88.5480 46° Northeast 286 329 5,700 -333 Descending FlightAware ADS-B
Tue 01:28:06 PM 41.3950 -88.5260 52° Northeast 283 326 5,600  Descending FlightAware ADS-B
Tue 01:28:26 PM 41.4080 -88.4970 59° Northeast 282 325 5,700  Climbing FlightAware ADS-B
Tue 01:28:42 PM 41.4190 -88.4710 61° Northeast 282 325 5,600  Descending FlightAware ADS-B
Tue 01:29:02 PM 41.4320 -88.4410 60° Northeast 283 326 5,700 150 Climbing FlightAware ADS-B
Tue 01:29:22 PM 41.4450 -88.4110 60° Northeast 282 325 5,700 -167 Level FlightAware ADS-B
Tue 01:29:38 PM 41.4540 -88.3890 61° Northeast 275 316 5,600 -167 Descending FlightAware ADS-B
Tue 01:29:58 PM 41.4670 -88.3600 59° Northeast 250 288 5,600 150 Level FlightAware ADS-B
Tue 01:30:18 PM 41.4780 -88.3340 61° Northeast 241 277 5,700 150 Climbing FlightAware ADS-B
Tue 01:30:38 PM 41.4890 -88.3070 61° Northeast 238 274 5,700 -136 Level FlightAware ADS-B
Tue 01:31:02 PM 41.5020 -88.2770 60° Northeast 239 275 5,600 -273 Descending FlightAware ADS-B
Tue 01:31:22 PM 41.5120 -88.2530 61° Northeast 237 273 5,500 -375 Descending FlightAware ADS-B
Tue 01:31:34 PM 41.5190 -88.2360 61° Northeast 235 270 5,400 -500 Descending FlightAware ADS-B
Tue 01:31:58 PM 41.5320 -88.2050 61° Northeast 235 270 5,200 -545 Descending FlightAware ADS-B
Tue 01:32:18 PM 41.5420 -88.1810 61° Northeast 235 270 5,000 -600 Descending FlightAware ADS-B
Tue 01:32:38 PM 41.5530 -88.1550 61° Northeast 233 268 4,800 -450 Descending FlightAware ADS-B
Tue 01:32:58 PM 41.5640 -88.1290 61° Northeast 233 268 4,700 -375 Descending FlightAware ADS-B
Tue 01:33:10 PM 41.5690 -88.1160 63° Northeast 231 266 4,600 -474 Descending FlightAware ADS-B
Tue 01:33:36 PM 41.5840 -88.0820 59° Northeast 226 260 4,400 -652 Descending FlightAware ADS-B
Tue 01:33:56 PM 41.5930 -88.0590 62° Northeast 224 258 4,100 -900 Descending FlightAware ADS-B
Tue 01:34:16 PM 41.6030 -88.0340 62° Northeast 224 258 3,800 -600 Descending FlightAware ADS-B
Tue 01:34:36 PM 41.6120 -88.0090 64° Northeast 226 260 3,700 -176 Descending FlightAware ADS-B
Tue 01:34:50 PM 41.6190 -87.9930 60° Northeast 226 260 3,700  Level FlightAware ADS-B
Tue 01:35:10 PM 41.6280 -87.9690 63° Northeast 210 242 3,700  Level FlightAware ADS-B
Tue 01:35:36 PM 41.6390 -87.9400 63° Northeast 189 217 3,700  Level FlightAware ADS-B
Tue 01:35:50 PM 41.6470 -87.9280 48° Northeast 188 216 3,700 -176 Level FlightAware ADS-B
Tue 01:36:10 PM 41.6590 -87.9110 47° Northeast 188 216 3,600 -600 Descending FlightAware ADS-B
Tue 01:36:30 PM 41.6720 -87.8950 43° Northeast 186 214 3,300 -1,050 Descending FlightAware ADS-B
Tue 01:36:50 PM 41.6850 -87.8790 43° Northeast 187 215 2,900 -1,050 Descending FlightAware ADS-B
Tue 01:37:10 PM 41.6960 -87.8640 46° Northeast 185 213 2,600 -1,043 Descending FlightAware ADS-B
Tue 01:37:36 PM 41.7130 -87.8430 43° Northeast 180 207 2,100 -1,091 Descending FlightAware ADS-B
Tue 01:37:54 PM 41.7240 -87.8300 41° Northeast 176 203 1,800 -1,050 Descending FlightAware ADS-B
Tue 01:38:16 PM 41.7370 -87.8130 44° Northeast 172 198 1,400 -857 Descending FlightAware ADS-B
Tue 01:38:36 PM 41.7470 -87.8000 44° Northeast 155 178 1,200 -750 Descending FlightAware ADS-B
Tue 01:38:56 PM 41.7570 -87.7880 42° Northeast 135 155 900 -789 Descending FlightAware ADS-B
Tue 01:39:14 PM 41.7640 -87.7780 47° Northeast 136 157 700 -667 Descending FlightAware ADS-B

Login

Don't have an account? Register now (free) for customized features, flight alerts, and more!